Página principal
METAR-TAF:

METAR-TAF

Aeroportos :

El Aaiún, Marrocos

latitude: 27-10N, longitude: 013-12-59W, altura: 6 m

Observação actual do tempo

O boletim foi feito há 41 minutos, às 12:00 UTC
Vento 6 kt de nor-noroeste
Temperatura 21°C
Humidade 60%
Pressão 1014 hPa
Visibilidade 10 km ou mais
Poucas nuvensa uma altura de 3300 ft
Nuvens dispersasa uma altura de 8000 ft

METAR: GMML 181200Z 33006KT 9999 FEW033 SCT080 21/13 Q1014 NOSIG

Hora: 12:41 (12:41 UTC)

Previsão

O boletim foi feito há 1 hora e 41 minutos, às 11:00 UTC
Previsão válida de 18 às 12 UTC a 19 às 18 UTC
Vento 7 kt de oes-noroeste
Visibilidade 10 km ou mais
Poucas nuvensa uma altura de 3000 ft
Nuvens fragmentadasa uma altura de 6000 ft

TAF: GMML 181100Z 1812/1918 30007KT 9999 FEW030 BKN060

Observações e previsões do tempo de mais de 4000 aeroportos (mensagens METAR e TAF).

As estações disponíveis são os pontos amarelos e vermelhos sobre o mapa.

Mova o rato sobre o mapa para ver o nome da estação.

Depois clique no ponto para visualizar as observações e previsões meteorológicas.

Para alterar o mapa : clique nos botões verdes com uma cruz preta para aumentar o zoom; no botão verde com uma pitada de zoom; ou nas setas verdes para mapas adjacentes.


METAR-TAF: